createdAt,value
2018-08-20T00:00:31.350Z,22.47
2018-08-20T00:01:31.435Z,22.48
2018-08-20T00:02:31.340Z,22.47
2018-08-20T00:03:31.347Z,22.5
2018-08-20T00:04:31.397Z,22.48
2018-08-20T00:05:31.381Z,22.48
2018-08-20T00:06:31.360Z,22.48
2018-08-20T00:07:31.368Z,22.5
2018-08-20T00:08:31.532Z,22.47
2018-08-20T00:09:31.400Z,22.46
2018-08-20T00:10:31.375Z,22.43
2018-08-20T00:11:31.489Z,22.41
2018-08-20T00:12:31.355Z,22.4
2018-08-20T00:13:31.379Z,22.34
2018-08-20T00:14:31.369Z,22.34
2018-08-20T00:15:31.394Z,22.31
2018-08-20T00:16:31.426Z,22.29
2018-08-20T00:17:31.385Z,22.26
2018-08-20T00:18:31.420Z,22.23
2018-08-20T00:19:31.386Z,22.2
2018-08-20T00:20:31.380Z,22.19
2018-08-20T00:21:31.701Z,22.16
2018-08-20T00:22:31.460Z,22.13
2018-08-20T00:23:31.458Z,22.11
2018-08-20T00:24:31.362Z,22.08
2018-08-20T00:25:31.492Z,22.08
2018-08-20T00:26:31.349Z,22.06
2018-08-20T00:27:31.398Z,22.05
2018-08-20T00:28:31.354Z,22.03
2018-08-20T00:29:31.402Z,22.03
2018-08-20T00:30:31.442Z,22.03
2018-08-20T00:31:31.461Z,22.05
2018-08-20T00:32:31.391Z,22.03
2018-08-20T00:33:31.504Z,22.05
2018-08-20T00:34:31.367Z,22.01
2018-08-20T00:35:31.453Z,21.98
2018-08-20T00:36:31.367Z,21.98
2018-08-20T00:37:31.350Z,21.96
2018-08-20T00:38:31.396Z,21.95
2018-08-20T00:39:31.439Z,21.92
2018-08-20T00:40:31.394Z,21.86
2018-08-20T00:41:31.607Z,21.84
2018-08-20T00:42:31.569Z,21.82
2018-08-20T00:43:31.471Z,21.74
2018-08-20T00:44:31.378Z,21.75
2018-08-20T00:45:31.447Z,21.75
2018-08-20T00:46:31.394Z,21.75
2018-08-20T00:47:32.042Z,21.77
2018-08-20T00:48:31.341Z,21.77
2018-08-20T00:49:31.452Z,21.75
2018-08-20T00:50:31.563Z,21.78
2018-08-20T00:51:31.406Z,21.78
2018-08-20T00:52:31.431Z,21.78
2018-08-20T00:53:31.385Z,21.77
2018-08-20T00:54:31.348Z,21.81
2018-08-20T00:55:31.486Z,21.81
2018-08-20T00:56:31.373Z,21.79
2018-08-20T00:57:31.363Z,21.77
2018-08-20T00:58:31.396Z,21.78
2018-08-20T00:59:32.124Z,21.74
2018-08-20T01:00:31.725Z,21.75
2018-08-20T01:01:31.360Z,21.72
2018-08-20T01:02:31.356Z,21.69
2018-08-20T01:03:31.363Z,21.68
2018-08-20T01:04:31.411Z,21.69
2018-08-20T01:05:31.436Z,21.65
2018-08-20T01:06:31.365Z,21.62
2018-08-20T01:07:31.342Z,21.62
2018-08-20T01:08:31.337Z,21.6
2018-08-20T01:09:31.346Z,21.61
2018-08-20T01:10:31.380Z,21.58
2018-08-20T01:11:31.332Z,21.6
2018-08-20T01:12:31.333Z,21.57
2018-08-20T01:13:31.361Z,21.54
2018-08-20T01:14:31.343Z,21.51
2018-08-20T01:15:31.326Z,21.5
2018-08-20T01:16:31.395Z,21.49
2018-08-20T01:17:31.464Z,21.47
2018-08-20T01:18:31.406Z,21.47
2018-08-20T01:19:31.454Z,21.4
2018-08-20T01:20:31.403Z,21.41
2018-08-20T01:21:31.321Z,21.41
2018-08-20T01:22:31.542Z,21.41
2018-08-20T01:23:31.404Z,21.43
2018-08-20T01:24:31.519Z,21.41
2018-08-20T01:25:32.062Z,21.41
2018-08-20T01:26:31.383Z,21.41
2018-08-20T01:27:31.714Z,21.4
2018-08-20T01:28:31.369Z,21.4
2018-08-20T01:29:31.446Z,21.4
2018-08-20T01:30:31.531Z,21.39
2018-08-20T01:31:31.513Z,21.4
2018-08-20T01:32:31.405Z,21.39
2018-08-20T01:33:31.492Z,21.39
2018-08-20T01:34:31.502Z,21.33
2018-08-20T01:35:31.528Z,21.33
2018-08-20T01:36:31.539Z,21.33
2018-08-20T01:37:31.381Z,21.3
2018-08-20T01:38:31.348Z,21.33
2018-08-20T01:39:31.478Z,21.3
2018-08-20T01:40:31.403Z,21.32
2018-08-20T01:41:31.325Z,21.27
2018-08-20T01:42:31.410Z,21.24
2018-08-20T01:43:31.344Z,21.24
2018-08-20T01:44:31.653Z,21.23
2018-08-20T01:45:31.365Z,21.22
2018-08-20T01:46:31.363Z,21.19
2018-08-20T01:47:31.337Z,21.2
2018-08-20T01:48:31.425Z,21.17
2018-08-20T01:49:31.352Z,21.16
2018-08-20T01:50:31.357Z,21.17
2018-08-20T01:51:31.569Z,21.16
2018-08-20T01:52:31.390Z,21.15
2018-08-20T01:53:31.397Z,21.15
2018-08-20T01:54:31.385Z,21.16
2018-08-20T01:55:31.392Z,21.15
2018-08-20T01:56:31.399Z,21.13
2018-08-20T01:57:31.612Z,21.13
2018-08-20T01:58:32.263Z,21.1
2018-08-20T01:59:31.568Z,21.12
2018-08-20T02:00:31.508Z,21.12
2018-08-20T02:01:31.363Z,21.1
2018-08-20T02:02:31.496Z,21.09
2018-08-20T02:03:31.544Z,21.09
2018-08-20T02:04:31.512Z,21.09
2018-08-20T02:05:31.466Z,21.09
2018-08-20T02:06:31.504Z,21.07
2018-08-20T02:07:32.197Z,21.07
2018-08-20T02:08:31.452Z,21.07
2018-08-20T02:09:31.766Z,21.03
2018-08-20T02:10:31.382Z,21.02
2018-08-20T02:11:31.454Z,21.02
2018-08-20T02:12:31.443Z,21.06
2018-08-20T02:13:31.522Z,21.05
2018-08-20T02:14:31.451Z,21.05
2018-08-20T02:15:31.424Z,21.03
2018-08-20T02:16:31.383Z,21.05
2018-08-20T02:17:31.539Z,21.06
2018-08-20T02:18:31.863Z,21.03
2018-08-20T02:19:31.406Z,21.02
2018-08-20T02:20:31.530Z,21.01
2018-08-20T02:21:31.400Z,21.02
2018-08-20T02:22:31.411Z,20.99
2018-08-20T02:23:31.329Z,21.01
2018-08-20T02:24:31.389Z,20.99
2018-08-20T02:25:31.356Z,20.98
2018-08-20T02:26:31.555Z,20.98
2018-08-20T02:27:31.724Z,20.99
2018-08-20T02:28:31.379Z,20.98
2018-08-20T02:29:31.440Z,20.95
2018-08-20T02:30:31.337Z,20.96
2018-08-20T02:31:31.325Z,20.95
2018-08-20T02:32:31.408Z,20.95
2018-08-20T02:33:31.692Z,20.96
2018-08-20T02:34:31.512Z,20.99
2018-08-20T02:35:31.424Z,20.96
2018-08-20T02:36:31.793Z,20.95
2018-08-20T02:37:31.383Z,20.94
2018-08-20T02:38:31.403Z,20.94
2018-08-20T02:39:31.337Z,20.95
2018-08-20T02:40:32.037Z,20.95
2018-08-20T02:41:31.306Z,20.94
2018-08-20T02:42:31.476Z,20.95
2018-08-20T02:43:31.324Z,20.94
2018-08-20T02:44:31.458Z,20.94
2018-08-20T02:45:31.384Z,20.91
2018-08-20T02:46:31.408Z,20.89
2018-08-20T02:47:31.392Z,20.85
2018-08-20T02:48:31.312Z,20.84
2018-08-20T02:49:31.367Z,20.84
2018-08-20T02:50:31.364Z,20.81
2018-08-20T02:51:31.316Z,20.81
2018-08-20T02:52:31.482Z,20.82
2018-08-20T02:53:31.331Z,20.82
2018-08-20T02:54:31.307Z,20.78
2018-08-20T02:55:31.302Z,20.77
2018-08-20T02:56:31.334Z,20.74
2018-08-20T02:57:31.339Z,20.72
2018-08-20T02:58:31.337Z,20.72
2018-08-20T02:59:31.294Z,20.71
2018-08-20T03:00:31.407Z,20.7
2018-08-20T03:01:31.327Z,20.67
2018-08-20T03:02:31.375Z,20.68
2018-08-20T03:03:31.600Z,20.68
2018-08-20T03:04:31.417Z,20.7
2018-08-20T03:05:31.380Z,20.7
2018-08-20T03:06:31.348Z,20.68
2018-08-20T03:07:31.412Z,20.68
2018-08-20T03:08:31.345Z,20.68
2018-08-20T03:09:31.420Z,20.67
2018-08-20T03:10:31.314Z,20.64
2018-08-20T03:11:31.712Z,20.64
2018-08-20T03:12:31.374Z,20.62
2018-08-20T03:13:31.566Z,20.6
2018-08-20T03:14:31.460Z,20.58
2018-08-20T03:15:31.360Z,20.55
2018-08-20T03:16:31.677Z,20.55
2018-08-20T03:17:31.690Z,20.55
2018-08-20T03:18:31.331Z,20.55
2018-08-20T03:19:31.511Z,20.54
2018-08-20T03:20:31.415Z,20.55
2018-08-20T03:21:31.493Z,20.54
2018-08-20T03:22:32.037Z,20.54
2018-08-20T03:23:31.426Z,20.55
2018-08-20T03:24:31.506Z,20.51
2018-08-20T03:25:31.362Z,20.48
2018-08-20T03:26:31.323Z,20.47
2018-08-20T03:27:31.346Z,20.47
2018-08-20T03:28:31.477Z,20.46
2018-08-20T03:29:31.365Z,20.43
2018-08-20T03:30:31.540Z,20.43
2018-08-20T03:31:31.743Z,20.43
2018-08-20T03:32:31.536Z,20.37
2018-08-20T03:33:31.459Z,20.37
2018-08-20T03:34:31.357Z,20.34
2018-08-20T03:35:31.434Z,20.34
2018-08-20T03:36:31.408Z,20.34
2018-08-20T03:37:31.347Z,20.36
2018-08-20T03:38:31.346Z,20.32
2018-08-20T03:39:31.349Z,20.3
2018-08-20T03:40:31.321Z,20.3
2018-08-20T03:41:31.643Z,20.24
2018-08-20T03:42:31.385Z,20.26
2018-08-20T03:43:31.518Z,20.23
2018-08-20T03:44:31.531Z,20.24
2018-08-20T03:45:31.444Z,20.23
2018-08-20T03:46:31.376Z,20.27
2018-08-20T03:47:31.340Z,20.26
2018-08-20T03:48:31.525Z,20.24
2018-08-20T03:49:31.570Z,20.24
2018-08-20T03:50:32.050Z,20.24
2018-08-20T03:51:31.597Z,20.17
2018-08-20T03:52:31.502Z,20.16
2018-08-20T03:53:31.350Z,20.16
2018-08-20T03:54:31.363Z,20.16
2018-08-20T03:55:31.339Z,20.13
2018-08-20T03:56:31.335Z,20.15
2018-08-20T03:57:31.301Z,20.15
2018-08-20T03:58:31.352Z,20.15
2018-08-20T03:59:31.319Z,20.11
2018-08-20T04:00:31.455Z,20.12
2018-08-20T04:01:31.336Z,20.12
2018-08-20T04:02:31.289Z,20.12
2018-08-20T04:03:31.351Z,20.13
2018-08-20T04:04:31.325Z,20.15
2018-08-20T04:05:31.333Z,20.13
2018-08-20T04:06:31.371Z,20.13
2018-08-20T04:07:31.311Z,20.12
2018-08-20T04:08:31.292Z,20.09
2018-08-20T04:09:31.364Z,20.09
2018-08-20T04:10:31.343Z,20.08
2018-08-20T04:11:31.305Z,20.08
2018-08-20T04:12:31.296Z,20.08
2018-08-20T04:13:31.331Z,20.05
2018-08-20T04:14:31.330Z,20.05
2018-08-20T04:15:31.306Z,20.04
2018-08-20T04:16:31.338Z,20.02
2018-08-20T04:17:31.376Z,20.01
2018-08-20T04:18:31.411Z,20.01
2018-08-20T04:19:31.320Z,19.99
2018-08-20T04:20:31.360Z,20.01
2018-08-20T04:21:31.313Z,20.04
2018-08-20T04:22:31.275Z,20.05
2018-08-20T04:23:31.355Z,20.05
2018-08-20T04:24:31.312Z,20.04
2018-08-20T04:25:31.383Z,20.02
2018-08-20T04:26:31.305Z,20.04
2018-08-20T04:27:31.642Z,20.02
2018-08-20T04:28:31.315Z,20.02
2018-08-20T04:29:31.333Z,20.04
2018-08-20T04:30:31.423Z,20.05
2018-08-20T04:31:31.297Z,20.06
2018-08-20T04:32:31.601Z,20.05
2018-08-20T04:33:31.311Z,20.06
2018-08-20T04:34:31.336Z,20.05
2018-08-20T04:35:31.297Z,20.02
2018-08-20T04:36:31.666Z,20.04
2018-08-20T04:37:31.414Z,20.04
2018-08-20T04:38:31.379Z,19.99
2018-08-20T04:39:31.302Z,19.96
2018-08-20T04:40:31.324Z,19.95
2018-08-20T04:41:31.477Z,19.95
2018-08-20T04:42:31.303Z,19.98
2018-08-20T04:43:31.381Z,19.95
2018-08-20T04:44:31.329Z,19.95
2018-08-20T04:45:31.428Z,19.95
2018-08-20T04:46:31.385Z,19.98
2018-08-20T04:47:31.344Z,19.96
2018-08-20T04:48:31.513Z,19.99
2018-08-20T04:49:31.322Z,19.99
2018-08-20T04:50:32.852Z,19.98
2018-08-20T04:51:32.226Z,19.98
2018-08-20T04:52:31.504Z,19.99
2018-08-20T04:53:31.376Z,20.04
2018-08-20T04:54:31.482Z,20.04
2018-08-20T04:55:31.343Z,20.02
2018-08-20T04:56:31.384Z,20.02
2018-08-20T04:57:31.317Z,19.99
2018-08-20T04:58:31.365Z,20.01
2018-08-20T04:59:31.287Z,20.01
2018-08-20T05:00:31.315Z,20.02
2018-08-20T05:01:31.472Z,20.02
2018-08-20T05:02:31.353Z,20.04
2018-08-20T05:03:31.508Z,20.06
2018-08-20T05:04:31.463Z,20.08
2018-08-20T05:05:31.373Z,20.06
2018-08-20T05:06:31.373Z,20.05
2018-08-20T05:07:31.291Z,20.09
2018-08-20T05:08:31.510Z,20.08
2018-08-20T05:09:31.373Z,20.09
2018-08-20T05:10:31.414Z,20.08
2018-08-20T05:11:31.438Z,20.11
2018-08-20T05:12:31.417Z,20.09
2018-08-20T05:13:31.279Z,20.09
2018-08-20T05:14:31.351Z,20.08
2018-08-20T05:15:31.414Z,20.11
2018-08-20T05:16:31.279Z,20.09
2018-08-20T05:17:31.294Z,20.06
2018-08-20T05:18:31.272Z,20.05
2018-08-20T05:19:31.308Z,20.06
2018-08-20T05:20:31.275Z,20.08
2018-08-20T05:21:31.315Z,20.08
2018-08-20T05:22:31.320Z,20.09
2018-08-20T05:23:31.299Z,20.11
2018-08-20T05:24:31.355Z,20.12
2018-08-20T05:25:31.293Z,20.11
2018-08-20T05:26:31.320Z,20.13
2018-08-20T05:27:31.286Z,20.13
2018-08-20T05:28:31.328Z,20.12
2018-08-20T05:29:31.753Z,20.13
2018-08-20T05:30:31.279Z,20.13
2018-08-20T05:31:31.291Z,20.15
2018-08-20T05:32:31.295Z,20.17
2018-08-20T05:33:31.302Z,20.19
2018-08-20T05:34:31.303Z,20.19
2018-08-20T05:35:31.273Z,20.19
2018-08-20T05:36:31.345Z,20.22
2018-08-20T05:37:31.261Z,20.22
2018-08-20T05:38:31.476Z,20.24
2018-08-20T05:39:31.704Z,20.26
2018-08-20T05:40:31.305Z,20.22
2018-08-20T05:41:31.371Z,20.26
2018-08-20T05:42:31.324Z,20.27
2018-08-20T05:43:31.375Z,20.27
2018-08-20T05:44:31.697Z,20.29
2018-08-20T05:45:31.309Z,20.3
2018-08-20T05:46:31.392Z,20.33
2018-08-20T05:47:31.321Z,20.3
2018-08-20T05:48:31.377Z,20.34
2018-08-20T05:49:31.425Z,20.34
2018-08-20T05:50:31.696Z,20.36
2018-08-20T05:51:31.287Z,20.37
2018-08-20T05:52:31.583Z,20.36
2018-08-20T05:53:31.295Z,20.4
2018-08-20T05:54:31.442Z,20.4
2018-08-20T05:55:31.267Z,20.4
2018-08-20T05:56:31.399Z,20.41
2018-08-20T05:57:31.362Z,20.43
2018-08-20T05:58:31.431Z,20.43
2018-08-20T05:59:31.637Z,20.47
2018-08-20T06:00:31.265Z,20.47
2018-08-20T06:01:31.294Z,20.47
2018-08-20T06:02:31.425Z,20.5
2018-08-20T06:03:31.263Z,20.5
2018-08-20T06:04:31.303Z,20.54
2018-08-20T06:05:32.229Z,20.54
2018-08-20T06:06:31.359Z,20.57
2018-08-20T06:07:31.274Z,20.57
2018-08-20T06:08:31.275Z,20.58
2018-08-20T06:09:31.390Z,20.58
2018-08-20T06:10:31.393Z,20.61
2018-08-20T06:11:31.729Z,20.64
2018-08-20T06:12:31.296Z,20.62
2018-08-20T06:13:31.448Z,20.67
2018-08-20T06:14:32.158Z,20.52
2018-08-20T06:15:31.255Z,20.52
2018-08-20T06:16:31.312Z,20.55
2018-08-20T06:17:31.283Z,20.57
2018-08-20T06:18:31.322Z,20.6
2018-08-20T06:19:31.939Z,20.61
2018-08-20T06:20:31.358Z,20.64
2018-08-20T06:21:31.409Z,20.64
2018-08-20T06:22:32.508Z,20.68
2018-08-20T06:23:31.279Z,20.71
2018-08-20T06:24:31.264Z,20.72
2018-08-20T06:25:31.368Z,20.75
2018-08-20T06:26:31.257Z,20.77
2018-08-20T06:27:31.253Z,20.78
2018-08-20T06:28:31.487Z,20.82
2018-08-20T06:29:31.257Z,20.81
2018-08-20T06:30:31.266Z,20.81
2018-08-20T06:31:31.682Z,20.82
2018-08-20T06:32:31.261Z,20.82
2018-08-20T06:33:31.275Z,20.85
2018-08-20T06:34:31.284Z,20.89
2018-08-20T06:35:31.299Z,20.92
2018-08-20T06:36:31.335Z,20.92
2018-08-20T06:37:31.315Z,20.98
2018-08-20T06:38:31.249Z,20.99
2018-08-20T06:39:31.259Z,20.98
2018-08-20T06:40:31.264Z,21.01
2018-08-20T06:41:31.615Z,21.03
2018-08-20T06:42:31.310Z,21.06
2018-08-20T06:43:31.297Z,21.07
2018-08-20T06:44:31.299Z,21.09
2018-08-20T06:45:34.185Z,21.1
2018-08-20T06:46:31.305Z,21.09
2018-08-20T06:47:31.283Z,21.06
2018-08-20T06:48:32.108Z,21.07
2018-08-20T06:49:31.990Z,21.1
2018-08-20T06:50:31.271Z,21.16
2018-08-20T06:51:31.276Z,21.16
2018-08-20T06:52:31.342Z,21.19
2018-08-20T06:53:31.399Z,21.23
2018-08-20T06:54:31.594Z,21.22
2018-08-20T06:55:31.291Z,21.24
2018-08-20T06:56:31.318Z,21.29
2018-08-20T06:57:31.478Z,21.3
2018-08-20T06:58:31.279Z,21.33
2018-08-20T06:59:31.339Z,21.34
2018-08-20T07:00:31.258Z,21.39
2018-08-20T07:01:31.313Z,21.36
2018-08-20T07:02:31.354Z,21.36
2018-08-20T07:03:31.253Z,21.37
2018-08-20T07:04:31.261Z,21.37
2018-08-20T07:05:31.302Z,21.43
2018-08-20T07:06:31.622Z,21.43
2018-08-20T07:07:31.324Z,21.41
2018-08-20T07:08:31.394Z,21.44
2018-08-20T07:09:31.263Z,21.49
2018-08-20T07:10:31.408Z,21.51
2018-08-20T07:11:31.343Z,21.57
2018-08-20T07:12:31.458Z,21.56
2018-08-20T07:13:31.305Z,21.61
2018-08-20T07:14:31.408Z,21.67
2018-08-20T07:15:31.301Z,21.68
2018-08-20T07:16:31.325Z,21.72
2018-08-20T07:17:31.814Z,21.77
2018-08-20T07:18:31.596Z,21.79
2018-08-20T07:19:31.317Z,21.81
2018-08-20T07:20:31.274Z,21.81
2018-08-20T07:21:31.385Z,21.79
2018-08-20T07:22:31.337Z,21.71
2018-08-20T07:23:31.968Z,21.77
2018-08-20T07:24:32.113Z,21.82
2018-08-20T07:25:31.269Z,21.85
2018-08-20T07:26:31.409Z,21.91
2018-08-20T07:27:31.249Z,21.89
2018-08-20T07:28:31.260Z,21.88
2018-08-20T07:29:31.260Z,21.94
2018-08-20T07:30:31.244Z,21.96
2018-08-20T07:31:31.310Z,21.98
2018-08-20T07:32:31.251Z,21.99
2018-08-20T07:33:31.485Z,22.03
2018-08-20T07:34:31.262Z,22.08
2018-08-20T07:35:31.501Z,22.15
2018-08-20T07:36:31.256Z,22.17
2018-08-20T07:37:31.291Z,22.23
2018-08-20T07:38:31.442Z,22.26
2018-08-20T07:39:31.373Z,22.29
2018-08-20T07:40:31.487Z,22.36
2018-08-20T07:41:31.309Z,22.37
2018-08-20T07:42:31.599Z,22.44
2018-08-20T07:43:31.254Z,22.51
2018-08-20T07:44:31.263Z,22.53
2018-08-20T07:45:31.421Z,22.57
2018-08-20T07:46:31.375Z,22.61
2018-08-20T07:47:31.292Z,22.67
2018-08-20T07:48:31.239Z,22.68
2018-08-20T07:49:31.285Z,22.65
2018-08-20T07:50:31.271Z,22.54
2018-08-20T07:51:31.260Z,22.5
2018-08-20T07:52:31.308Z,22.47
2018-08-20T07:53:31.238Z,22.56
2018-08-20T07:54:31.234Z,22.65
2018-08-20T07:55:31.477Z,22.7
2018-08-20T07:56:31.245Z,22.81
2018-08-20T07:57:31.297Z,22.84
2018-08-20T07:58:31.334Z,22.92
2018-08-20T07:59:31.241Z,22.95
2018-08-20T08:00:31.263Z,22.96
2018-08-20T08:01:31.269Z,23.01
2018-08-20T08:02:31.286Z,23.01
2018-08-20T08:03:31.232Z,22.98
2018-08-20T08:04:31.253Z,23.02
2018-08-20T08:05:31.326Z,23.05
2018-08-20T08:06:31.270Z,23.13
2018-08-20T08:07:31.231Z,23.19
2018-08-20T08:08:31.242Z,23.15
2018-08-20T08:09:31.337Z,23.16
2018-08-20T08:10:31.274Z,23.19
2018-08-20T08:11:31.309Z,23.23
2018-08-20T08:12:31.243Z,23.27
2018-08-20T08:13:31.322Z,23.37
2018-08-20T08:14:31.237Z,23.37
2018-08-20T08:15:31.279Z,23.33
2018-08-20T08:16:31.274Z,23.32
2018-08-20T08:17:31.464Z,23.39
2018-08-20T08:18:31.253Z,23.43
2018-08-20T08:19:31.727Z,23.51
2018-08-20T08:20:31.266Z,23.56
2018-08-20T08:21:31.301Z,23.57
2018-08-20T08:22:31.298Z,23.6
2018-08-20T08:23:31.237Z,23.69
2018-08-20T08:24:31.273Z,23.77
2018-08-20T08:25:31.367Z,23.82
2018-08-20T08:26:31.509Z,23.85
2018-08-20T08:27:31.276Z,23.92
2018-08-20T08:28:31.256Z,23.93
2018-08-20T08:29:31.738Z,23.95
2018-08-20T08:30:31.314Z,23.92
2018-08-20T08:31:31.240Z,23.98
2018-08-20T08:32:31.352Z,24.02
2018-08-20T08:33:31.245Z,23.98
2018-08-20T08:34:31.374Z,24.09
2018-08-20T08:35:31.292Z,24.09
2018-08-20T08:36:31.408Z,24.05
2018-08-20T08:37:31.238Z,24.08
2018-08-20T08:38:31.253Z,24.02
2018-08-20T08:39:31.885Z,24.05
2018-08-20T08:40:31.254Z,24.09
2018-08-20T08:41:31.221Z,24.09
2018-08-20T08:42:31.304Z,24.06
2018-08-20T08:43:31.265Z,24.12
2018-08-20T08:44:31.263Z,24.1
2018-08-20T08:45:31.207Z,24.06
2018-08-20T08:46:31.241Z,24.15
2018-08-20T08:47:31.226Z,24.23
2018-08-20T08:48:31.437Z,24.35
2018-08-20T08:49:31.729Z,24.39
2018-08-20T08:50:31.239Z,24.44
2018-08-20T08:51:31.239Z,24.53
2018-08-20T08:52:31.244Z,24.58
2018-08-20T08:53:31.317Z,24.6
2018-08-20T08:54:31.221Z,24.63
2018-08-20T08:55:31.330Z,24.7
2018-08-20T08:56:31.319Z,24.77
2018-08-20T08:57:31.228Z,24.85
2018-08-20T08:58:31.395Z,24.86
2018-08-20T08:59:31.685Z,24.94
2018-08-20T09:00:31.431Z,25.01
2018-08-20T09:01:31.282Z,25.09
2018-08-20T09:02:31.251Z,25.15
2018-08-20T09:03:31.285Z,25.23
2018-08-20T09:04:31.335Z,25.27
2018-08-20T09:05:31.329Z,25.22
2018-08-20T09:06:31.254Z,25.26
2018-08-20T09:07:31.235Z,25.33
2018-08-20T09:08:31.224Z,25.38
2018-08-20T09:09:31.646Z,25.43
2018-08-20T09:10:31.245Z,25.38
2018-08-20T09:11:31.262Z,25.27
2018-08-20T09:12:31.276Z,25.29
2018-08-20T09:13:31.214Z,25.3
2018-08-20T09:14:31.224Z,25.33
2018-08-20T09:15:31.208Z,25.3
2018-08-20T09:16:31.250Z,25.34
2018-08-20T09:17:31.216Z,25.37
2018-08-20T09:18:31.246Z,25.48
2018-08-20T09:19:31.737Z,25.5
2018-08-20T09:20:31.368Z,25.58
2018-08-20T09:21:31.244Z,25.6
2018-08-20T09:22:31.603Z,25.61
2018-08-20T09:23:31.228Z,25.65
2018-08-20T09:24:31.222Z,25.72
2018-08-20T09:25:31.219Z,25.75
2018-08-20T09:26:31.225Z,25.81
2018-08-20T09:27:31.221Z,25.84
2018-08-20T09:28:31.298Z,25.87
2018-08-20T09:29:31.715Z,25.85
2018-08-20T09:30:31.242Z,25.92
2018-08-20T09:31:31.384Z,25.92
2018-08-20T09:32:31.240Z,25.93
2018-08-20T09:33:31.305Z,25.89
2018-08-20T09:34:31.338Z,25.93
2018-08-20T09:35:31.347Z,26.05
2018-08-20T09:36:31.393Z,26.09
2018-08-20T09:37:31.250Z,26.12
2018-08-20T09:38:31.217Z,26.1
2018-08-20T09:39:31.673Z,26.05
2018-08-20T09:40:31.215Z,25.93
2018-08-20T09:41:31.281Z,25.85
2018-08-20T09:42:31.197Z,25.87
2018-08-20T09:43:31.397Z,25.95
2018-08-20T09:44:31.224Z,26.03
2018-08-20T09:45:31.277Z,26.16
2018-08-20T09:46:31.310Z,26.09
2018-08-20T09:47:31.216Z,26.08
2018-08-20T09:48:31.496Z,26.1
2018-08-20T09:49:31.713Z,26.16
2018-08-20T09:50:31.212Z,26.25
2018-08-20T09:51:31.346Z,26.25
2018-08-20T09:52:31.325Z,26.29
2018-08-20T09:53:31.660Z,26.25
2018-08-20T09:54:31.233Z,26.29
2018-08-20T09:55:31.272Z,26.32
2018-08-20T09:56:31.943Z,26.34
2018-08-20T09:57:31.213Z,26.37
2018-08-20T09:58:31.340Z,26.4
2018-08-20T09:59:31.740Z,26.46
2018-08-20T10:00:31.451Z,26.53
2018-08-20T10:01:31.284Z,26.54
2018-08-20T10:02:31.236Z,26.61
2018-08-20T10:03:31.229Z,26.62
2018-08-20T10:04:31.258Z,26.61
2018-08-20T10:05:31.245Z,26.64
2018-08-20T10:06:31.321Z,26.65
2018-08-20T10:07:31.469Z,26.71
2018-08-20T10:08:31.459Z,26.7
2018-08-20T10:09:31.500Z,26.71
2018-08-20T10:10:31.832Z,26.74
2018-08-20T10:11:31.252Z,26.78
2018-08-20T10:12:31.252Z,26.89
2018-08-20T10:13:31.680Z,26.91
2018-08-20T10:14:31.210Z,27.02
2018-08-20T10:15:31.267Z,27.05
2018-08-20T10:16:31.258Z,27.01
2018-08-20T10:17:31.249Z,27.03
2018-08-20T10:18:31.749Z,27.12
2018-08-20T10:19:31.792Z,27.1
2018-08-20T10:20:31.539Z,27.16
2018-08-20T10:21:31.328Z,27.24
2018-08-20T10:22:31.827Z,27.19
2018-08-20T10:23:33.095Z,27.23
2018-08-20T10:24:31.370Z,27.27
2018-08-20T10:25:31.242Z,27.26
2018-08-20T10:26:31.406Z,27.33
2018-08-20T10:27:31.196Z,27.36
2018-08-20T10:28:31.211Z,27.36
2018-08-20T10:29:31.688Z,27.4
2018-08-20T10:30:31.665Z,27.39
2018-08-20T10:31:31.316Z,27.36
2018-08-20T10:32:31.715Z,27.44
2018-08-20T10:33:31.406Z,27.49
2018-08-20T10:34:31.244Z,27.49
2018-08-20T10:35:31.240Z,27.44
2018-08-20T10:36:31.233Z,27.47
2018-08-20T10:37:31.566Z,27.47
2018-08-20T10:38:31.273Z,27.4
2018-08-20T10:39:31.650Z,27.41
2018-08-20T10:40:31.327Z,27.46
2018-08-20T10:41:31.211Z,27.51
2018-08-20T10:42:31.498Z,27.57
2018-08-20T10:43:31.335Z,27.54
2018-08-20T10:44:31.192Z,27.47
2018-08-20T10:45:31.453Z,27.54
2018-08-20T10:46:31.213Z,27.51
2018-08-20T10:47:32.262Z,27.47
2018-08-20T10:48:31.277Z,27.44
2018-08-20T10:49:31.666Z,27.41
2018-08-20T10:50:31.325Z,27.44
2018-08-20T10:51:31.214Z,27.34
2018-08-20T10:52:31.264Z,27.32
2018-08-20T10:53:31.437Z,27.27
2018-08-20T10:54:31.189Z,27.2
2018-08-20T10:55:31.224Z,27.19
2018-08-20T10:56:31.279Z,27.22
2018-08-20T10:57:31.246Z,27.17
2018-08-20T10:58:31.318Z,27.23
2018-08-20T10:59:31.893Z,27.23
2018-08-20T11:00:31.206Z,27.24
2018-08-20T11:01:31.777Z,27.19
2018-08-20T11:02:31.227Z,27.13
2018-08-20T11:03:31.333Z,27.16
2018-08-20T11:04:31.799Z,27.17
2018-08-20T11:05:31.246Z,27.29
2018-08-20T11:06:31.270Z,27.33
2018-08-20T11:07:31.232Z,27.15
2018-08-20T11:08:31.289Z,27.23
2018-08-20T11:09:31.233Z,27.29
2018-08-20T11:10:31.252Z,27.43
2018-08-20T11:11:31.190Z,27.5
2018-08-20T11:12:31.853Z,27.5
2018-08-20T11:13:31.380Z,27.46
2018-08-20T11:14:31.356Z,27.51
2018-08-20T11:15:31.255Z,27.57
2018-08-20T11:16:31.207Z,27.41
2018-08-20T11:17:31.989Z,27.49
2018-08-20T11:18:31.749Z,27.56
2018-08-20T11:19:31.746Z,27.6
2018-08-20T11:20:31.224Z,27.64
2018-08-20T11:21:31.230Z,27.68
2018-08-20T11:22:31.641Z,27.75
2018-08-20T11:23:31.199Z,27.79
2018-08-20T11:24:31.229Z,27.89
2018-08-20T11:25:31.228Z,27.85
2018-08-20T11:26:31.196Z,27.71
2018-08-20T11:27:31.413Z,27.67
2018-08-20T11:28:31.259Z,27.68
2018-08-20T11:29:31.715Z,27.64
2018-08-20T11:30:31.218Z,27.72
2018-08-20T11:31:31.266Z,27.75
2018-08-20T11:32:31.189Z,27.78
2018-08-20T11:33:31.205Z,27.84
2018-08-20T11:34:31.338Z,27.92
2018-08-20T11:35:32.251Z,27.93
2018-08-20T11:36:31.410Z,27.84
2018-08-20T11:37:31.224Z,27.88
2018-08-20T11:38:31.189Z,27.91
2018-08-20T11:39:31.780Z,27.82
2018-08-20T11:40:31.188Z,27.87
2018-08-20T11:41:31.208Z,27.84
2018-08-20T11:42:31.252Z,27.87
2018-08-20T11:43:31.486Z,27.89
2018-08-20T11:44:31.229Z,27.96
2018-08-20T11:45:31.405Z,28.02
2018-08-20T11:46:31.187Z,27.96
2018-08-20T11:47:31.259Z,27.93
2018-08-20T11:48:31.263Z,27.98
2018-08-20T11:49:31.656Z,27.99
2018-08-20T11:50:31.212Z,27.96
2018-08-20T11:51:31.239Z,27.98
2018-08-20T11:52:31.263Z,28.02
2018-08-20T11:53:31.209Z,28.04
2018-08-20T11:54:31.288Z,28.01
2018-08-20T11:55:31.810Z,28.02
2018-08-20T11:56:31.366Z,28.04
2018-08-20T11:57:31.263Z,27.93
2018-08-20T11:58:31.245Z,27.89
2018-08-20T11:59:31.749Z,27.82
2018-08-20T12:00:31.494Z,27.72
2018-08-20T12:01:31.192Z,27.78
2018-08-20T12:02:31.341Z,27.72
2018-08-20T12:03:31.231Z,27.71
2018-08-20T12:04:31.243Z,27.58
2018-08-20T12:05:31.190Z,27.54
2018-08-20T12:06:31.239Z,27.6
2018-08-20T12:07:31.453Z,27.64
2018-08-20T12:08:31.241Z,27.71
2018-08-20T12:09:31.724Z,27.74
2018-08-20T12:10:31.254Z,27.75
2018-08-20T12:11:31.227Z,27.77
2018-08-20T12:12:31.292Z,27.77
2018-08-20T12:13:31.260Z,27.72
2018-08-20T12:14:32.133Z,27.84
2018-08-20T12:15:31.288Z,27.88
2018-08-20T12:16:31.432Z,27.74
2018-08-20T12:17:31.343Z,27.6
2018-08-20T12:18:31.403Z,27.67
2018-08-20T12:19:31.751Z,27.64
2018-08-20T12:20:31.314Z,27.7
2018-08-20T12:21:31.212Z,27.74
2018-08-20T12:22:31.499Z,27.75
2018-08-20T12:23:31.214Z,27.6
2018-08-20T12:24:31.224Z,27.64
2018-08-20T12:25:31.447Z,27.65
2018-08-20T12:26:31.204Z,27.71
2018-08-20T12:27:31.242Z,27.85
2018-08-20T12:28:31.327Z,27.88
2018-08-20T12:29:31.196Z,27.88
2018-08-20T12:30:31.366Z,27.82
2018-08-20T12:31:31.221Z,27.85
2018-08-20T12:32:31.217Z,27.88
2018-08-20T12:33:31.225Z,27.88
2018-08-20T12:34:31.237Z,27.85
2018-08-20T12:35:31.510Z,27.82
2018-08-20T12:36:31.175Z,27.81
2018-08-20T12:37:31.205Z,27.84
2018-08-20T12:38:31.198Z,27.81
2018-08-20T12:39:32.576Z,27.84
2018-08-20T12:40:31.556Z,27.85
2018-08-20T12:41:31.232Z,27.85
2018-08-20T12:42:31.530Z,27.85
2018-08-20T12:43:31.199Z,27.85
2018-08-20T12:44:31.201Z,27.84
2018-08-20T12:45:31.184Z,27.95
2018-08-20T12:46:31.220Z,27.96
2018-08-20T12:47:31.802Z,27.98
2018-08-20T12:48:31.240Z,27.93
2018-08-20T12:49:31.159Z,28.02
2018-08-20T12:50:31.201Z,27.98
2018-08-20T12:51:31.221Z,27.99
2018-08-20T12:52:31.198Z,28.02
2018-08-20T12:53:31.349Z,27.98
2018-08-20T12:54:31.215Z,28.02